Terminal Aerodrome Forecast
Issued by NWS Pocatello, ID

Home | Current Version | Previous Version | Text Only | Print | Product List | Glossary On
Versions: 1 2 3 4 5 6 7 8 9 10 11 12
000
FTUS45 KPIH 061730
TAFIDA
TAF
KIDA 061730Z 0618/0718 VRB04KT P6SM -SHRA VCTS SCT040CB BKN110
      BKN180
     FM062100 VRB04KT P6SM VCTS FEW050CB BKN180
     FM070300 VRB04KT P6SM FEW080 SCT180=

USA.gov is the U.S. government's official web portal to all federal, state and local government web resources and services.